sensor_id;sensor_type;location;lat;lon;timestamp;P1;durP1;ratioP1;P2;durP2;ratioP2
46036;SDS011;31769;49.304;8.428;2023-09-30T00:01:00;9.48;;;6.82;;
46036;SDS011;31769;49.304;8.428;2023-09-30T00:04:01;10.48;;;8.75;;
46036;SDS011;31769;49.304;8.428;2023-09-30T00:07:03;12.65;;;8.93;;
46036;SDS011;31769;49.304;8.428;2023-09-30T00:10:05;14.60;;;10.13;;
46036;SDS011;31769;49.304;8.428;2023-09-30T00:13:06;11.23;;;7.13;;
46036;SDS011;31769;49.304;8.428;2023-09-30T00:16:06;5.90;;;3.95;;
46036;SDS011;31769;49.304;8.428;2023-09-30T00:19:07;7.15;;;4.13;;
46036;SDS011;31769;49.304;8.428;2023-09-30T00:22:08;3.05;;;2.83;;
46036;SDS011;31769;49.304;8.428;2023-09-30T00:25:08;5.78;;;3.40;;
46036;SDS011;31769;49.304;8.428;2023-09-30T00:28:10;6.65;;;3.90;;
46036;SDS011;31769;49.304;8.428;2023-09-30T00:31:10;6.18;;;3.13;;
46036;SDS011;31769;49.304;8.428;2023-09-30T00:34:11;5.35;;;3.13;;
46036;SDS011;31769;49.304;8.428;2023-09-30T00:37:12;4.93;;;2.70;;
46036;SDS011;31769;49.304;8.428;2023-09-30T00:40:13;4.47;;;2.75;;
46036;SDS011;31769;49.304;8.428;2023-09-30T00:43:20;6.18;;;3.25;;
46036;SDS011;31769;49.304;8.428;2023-09-30T00:46:33;5.00;;;2.72;;
46036;SDS011;31769;49.304;8.428;2023-09-30T00:49:40;6.93;;;3.03;;
46036;SDS011;31769;49.304;8.428;2023-09-30T00:52:43;5.18;;;2.78;;
46036;SDS011;31769;49.304;8.428;2023-09-30T00:55:46;3.97;;;2.47;;
46036;SDS011;31769;49.304;8.428;2023-09-30T00:58:47;5.70;;;3.20;;
46036;SDS011;31769;49.304;8.428;2023-09-30T01:01:48;4.72;;;3.10;;
46036;SDS011;31769;49.304;8.428;2023-09-30T01:04:49;4.15;;;2.65;;
46036;SDS011;31769;49.304;8.428;2023-09-30T01:07:50;3.17;;;2.63;;
46036;SDS011;31769;49.304;8.428;2023-09-30T01:10:51;3.38;;;2.70;;
46036;SDS011;31769;49.304;8.428;2023-09-30T01:13:52;6.22;;;2.80;;
46036;SDS011;31769;49.304;8.428;2023-09-30T01:16:54;4.22;;;2.80;;
46036;SDS011;31769;49.304;8.428;2023-09-30T01:19:56;6.53;;;3.00;;
46036;SDS011;31769;49.304;8.428;2023-09-30T01:23:00;4.78;;;2.47;;
46036;SDS011;31769;49.304;8.428;2023-09-30T01:26:09;3.97;;;2.63;;
46036;SDS011;31769;49.304;8.428;2023-09-30T01:29:12;5.88;;;2.85;;
46036;SDS011;31769;49.304;8.428;2023-09-30T01:32:12;6.53;;;2.85;;
46036;SDS011;31769;49.304;8.428;2023-09-30T01:35:14;6.57;;;3.10;;
46036;SDS011;31769;49.304;8.428;2023-09-30T01:38:14;7.85;;;3.40;;
46036;SDS011;31769;49.304;8.428;2023-09-30T01:41:15;4.93;;;2.83;;
46036;SDS011;31769;49.304;8.428;2023-09-30T01:44:16;4.20;;;2.63;;
46036;SDS011;31769;49.304;8.428;2023-09-30T01:47:17;6.55;;;2.88;;
46036;SDS011;31769;49.304;8.428;2023-09-30T01:50:18;6.10;;;3.28;;
46036;SDS011;31769;49.304;8.428;2023-09-30T01:53:19;4.43;;;3.15;;
46036;SDS011;31769;49.304;8.428;2023-09-30T01:56:19;5.38;;;2.75;;
46036;SDS011;31769;49.304;8.428;2023-09-30T01:59:20;5.70;;;3.03;;
46036;SDS011;31769;49.304;8.428;2023-09-30T02:02:21;7.32;;;3.25;;
46036;SDS011;31769;49.304;8.428;2023-09-30T02:05:22;10.43;;;5.32;;
46036;SDS011;31769;49.304;8.428;2023-09-30T02:08:24;6.93;;;2.78;;
46036;SDS011;31769;49.304;8.428;2023-09-30T02:11:24;6.63;;;4.15;;
46036;SDS011;31769;49.304;8.428;2023-09-30T02:14:25;5.80;;;3.33;;
46036;SDS011;31769;49.304;8.428;2023-09-30T02:17:25;17.33;;;7.68;;
46036;SDS011;31769;49.304;8.428;2023-09-30T02:20:26;9.25;;;3.90;;
46036;SDS011;31769;49.304;8.428;2023-09-30T02:23:30;7.05;;;4.32;;
46036;SDS011;31769;49.304;8.428;2023-09-30T02:26:31;7.20;;;4.38;;
46036;SDS011;31769;49.304;8.428;2023-09-30T02:29:31;7.78;;;4.35;;
46036;SDS011;31769;49.304;8.428;2023-09-30T02:32:32;6.63;;;3.97;;
46036;SDS011;31769;49.304;8.428;2023-09-30T02:35:33;8.52;;;4.50;;
46036;SDS011;31769;49.304;8.428;2023-09-30T02:38:34;6.90;;;4.20;;
46036;SDS011;31769;49.304;8.428;2023-09-30T02:41:37;9.05;;;4.15;;
46036;SDS011;31769;49.304;8.428;2023-09-30T02:44:39;13.30;;;7.40;;
46036;SDS011;31769;49.304;8.428;2023-09-30T02:47:39;13.55;;;8.07;;
46036;SDS011;31769;49.304;8.428;2023-09-30T02:50:43;11.18;;;6.68;;
46036;SDS011;31769;49.304;8.428;2023-09-30T02:53:46;5.70;;;4.18;;
46036;SDS011;31769;49.304;8.428;2023-09-30T02:56:48;8.20;;;4.82;;
46036;SDS011;31769;49.304;8.428;2023-09-30T02:59:49;8.60;;;4.53;;
46036;SDS011;31769;49.304;8.428;2023-09-30T03:02:50;7.68;;;4.60;;
46036;SDS011;31769;49.304;8.428;2023-09-30T03:05:52;8.95;;;4.95;;
46036;SDS011;31769;49.304;8.428;2023-09-30T03:08:54;6.97;;;4.63;;
46036;SDS011;31769;49.304;8.428;2023-09-30T03:11:55;10.18;;;5.35;;
46036;SDS011;31769;49.304;8.428;2023-09-30T03:14:59;7.20;;;4.63;;
46036;SDS011;31769;49.304;8.428;2023-09-30T03:18:00;11.07;;;5.63;;
46036;SDS011;31769;49.304;8.428;2023-09-30T03:21:01;10.63;;;5.35;;
46036;SDS011;31769;49.304;8.428;2023-09-30T03:24:05;10.23;;;4.85;;
46036;SDS011;31769;49.304;8.428;2023-09-30T03:27:08;9.38;;;5.20;;
46036;SDS011;31769;49.304;8.428;2023-09-30T03:30:09;10.70;;;6.00;;
46036;SDS011;31769;49.304;8.428;2023-09-30T03:33:11;7.00;;;4.75;;
46036;SDS011;31769;49.304;8.428;2023-09-30T03:36:13;10.43;;;5.20;;
46036;SDS011;31769;49.304;8.428;2023-09-30T03:39:15;9.60;;;5.28;;
46036;SDS011;31769;49.304;8.428;2023-09-30T03:42:17;9.07;;;5.10;;
46036;SDS011;31769;49.304;8.428;2023-09-30T03:45:18;8.18;;;5.07;;
46036;SDS011;31769;49.304;8.428;2023-09-30T03:48:18;9.80;;;5.63;;
46036;SDS011;31769;49.304;8.428;2023-09-30T03:51:19;8.85;;;5.25;;
46036;SDS011;31769;49.304;8.428;2023-09-30T03:54:20;8.85;;;6.00;;
46036;SDS011;31769;49.304;8.428;2023-09-30T03:57:21;8.75;;;5.97;;
46036;SDS011;31769;49.304;8.428;2023-09-30T04:00:21;9.55;;;5.65;;
46036;SDS011;31769;49.304;8.428;2023-09-30T04:03:22;8.07;;;5.13;;
46036;SDS011;31769;49.304;8.428;2023-09-30T04:06:23;10.98;;;6.30;;
46036;SDS011;31769;49.304;8.428;2023-09-30T04:09:24;11.27;;;6.03;;
46036;SDS011;31769;49.304;8.428;2023-09-30T04:12:25;9.27;;;5.80;;
46036;SDS011;31769;49.304;8.428;2023-09-30T04:15:26;11.70;;;5.90;;
46036;SDS011;31769;49.304;8.428;2023-09-30T04:18:27;11.80;;;6.32;;
46036;SDS011;31769;49.304;8.428;2023-09-30T04:21:28;11.80;;;6.22;;
46036;SDS011;31769;49.304;8.428;2023-09-30T04:24:32;9.35;;;6.20;;
46036;SDS011;31769;49.304;8.428;2023-09-30T04:27:32;12.15;;;6.65;;
46036;SDS011;31769;49.304;8.428;2023-09-30T04:30:33;10.55;;;6.13;;
46036;SDS011;31769;49.304;8.428;2023-09-30T04:33:34;9.00;;;5.85;;
46036;SDS011;31769;49.304;8.428;2023-09-30T04:36:36;8.20;;;6.13;;
46036;SDS011;31769;49.304;8.428;2023-09-30T04:39:38;8.57;;;5.88;;
46036;SDS011;31769;49.304;8.428;2023-09-30T04:42:38;11.50;;;5.80;;
46036;SDS011;31769;49.304;8.428;2023-09-30T04:45:39;8.20;;;5.97;;
46036;SDS011;31769;49.304;8.428;2023-09-30T04:48:40;11.45;;;6.10;;
46036;SDS011;31769;49.304;8.428;2023-09-30T04:51:41;10.27;;;5.65;;
46036;SDS011;31769;49.304;8.428;2023-09-30T04:54:42;9.57;;;5.80;;
46036;SDS011;31769;49.304;8.428;2023-09-30T04:57:47;10.75;;;6.03;;
46036;SDS011;31769;49.304;8.428;2023-09-30T05:00:49;6.97;;;5.70;;
46036;SDS011;31769;49.304;8.428;2023-09-30T05:03:49;12.32;;;6.72;;
46036;SDS011;31769;49.304;8.428;2023-09-30T05:06:50;12.05;;;6.40;;
46036;SDS011;31769;49.304;8.428;2023-09-30T05:09:50;10.57;;;7.18;;
46036;SDS011;31769;49.304;8.428;2023-09-30T05:12:54;11.45;;;7.05;;
46036;SDS011;31769;49.304;8.428;2023-09-30T05:15:55;11.48;;;7.03;;
46036;SDS011;31769;49.304;8.428;2023-09-30T05:18:56;10.10;;;6.55;;
46036;SDS011;31769;49.304;8.428;2023-09-30T05:21:57;7.35;;;6.43;;
46036;SDS011;31769;49.304;8.428;2023-09-30T05:24:58;13.10;;;7.35;;
46036;SDS011;31769;49.304;8.428;2023-09-30T05:27:58;15.35;;;7.45;;
46036;SDS011;31769;49.304;8.428;2023-09-30T05:30:59;12.60;;;7.35;;
46036;SDS011;31769;49.304;8.428;2023-09-30T05:34:01;12.20;;;7.68;;
46036;SDS011;31769;49.304;8.428;2023-09-30T05:37:02;12.90;;;7.68;;
46036;SDS011;31769;49.304;8.428;2023-09-30T05:40:03;11.63;;;8.18;;
46036;SDS011;31769;49.304;8.428;2023-09-30T05:43:09;12.27;;;7.72;;
46036;SDS011;31769;49.304;8.428;2023-09-30T05:46:14;9.50;;;7.30;;
46036;SDS011;31769;49.304;8.428;2023-09-30T05:49:15;11.57;;;8.18;;
46036;SDS011;31769;49.304;8.428;2023-09-30T05:52:16;12.43;;;8.20;;
46036;SDS011;31769;49.304;8.428;2023-09-30T05:55:17;11.73;;;8.18;;
46036;SDS011;31769;49.304;8.428;2023-09-30T05:58:20;12.63;;;8.32;;
46036;SDS011;31769;49.304;8.428;2023-09-30T06:01:21;16.35;;;9.13;;
46036;SDS011;31769;49.304;8.428;2023-09-30T06:04:22;14.55;;;9.05;;
46036;SDS011;31769;49.304;8.428;2023-09-30T06:07:23;22.10;;;14.45;;
46036;SDS011;31769;49.304;8.428;2023-09-30T06:10:23;13.25;;;9.98;;
46036;SDS011;31769;49.304;8.428;2023-09-30T06:13:25;12.45;;;10.20;;
46036;SDS011;31769;49.304;8.428;2023-09-30T06:16:28;12.18;;;9.15;;
46036;SDS011;31769;49.304;8.428;2023-09-30T06:19:31;14.23;;;9.63;;
46036;SDS011;31769;49.304;8.428;2023-09-30T06:22:32;13.63;;;9.20;;
46036;SDS011;31769;49.304;8.428;2023-09-30T06:25:33;15.68;;;10.73;;
46036;SDS011;31769;49.304;8.428;2023-09-30T06:28:33;14.93;;;9.90;;
46036;SDS011;31769;49.304;8.428;2023-09-30T06:31:40;15.35;;;9.60;;
46036;SDS011;31769;49.304;8.428;2023-09-30T06:34:41;14.65;;;8.88;;
46036;SDS011;31769;49.304;8.428;2023-09-30T06:37:42;16.50;;;9.50;;
46036;SDS011;31769;49.304;8.428;2023-09-30T06:40:45;13.75;;;9.15;;
46036;SDS011;31769;49.304;8.428;2023-09-30T06:43:47;13.40;;;8.93;;
46036;SDS011;31769;49.304;8.428;2023-09-30T06:46:49;13.82;;;9.40;;
46036;SDS011;31769;49.304;8.428;2023-09-30T06:49:50;14.80;;;9.48;;
46036;SDS011;31769;49.304;8.428;2023-09-30T06:52:51;15.02;;;9.85;;
46036;SDS011;31769;49.304;8.428;2023-09-30T06:55:52;14.15;;;9.18;;
46036;SDS011;31769;49.304;8.428;2023-09-30T06:58:52;12.38;;;9.38;;
46036;SDS011;31769;49.304;8.428;2023-09-30T07:01:53;17.15;;;10.18;;
46036;SDS011;31769;49.304;8.428;2023-09-30T07:04:54;14.57;;;10.07;;
46036;SDS011;31769;49.304;8.428;2023-09-30T07:07:55;15.98;;;9.77;;
46036;SDS011;31769;49.304;8.428;2023-09-30T07:10:56;13.93;;;9.45;;
46036;SDS011;31769;49.304;8.428;2023-09-30T07:13:57;18.48;;;9.45;;
46036;SDS011;31769;49.304;8.428;2023-09-30T07:16:58;16.08;;;9.70;;
46036;SDS011;31769;49.304;8.428;2023-09-30T07:19:58;18.42;;;9.90;;
46036;SDS011;31769;49.304;8.428;2023-09-30T07:23:00;13.77;;;8.68;;
46036;SDS011;31769;49.304;8.428;2023-09-30T07:26:01;13.77;;;7.65;;
46036;SDS011;31769;49.304;8.428;2023-09-30T07:29:01;22.80;;;14.68;;
46036;SDS011;31769;49.304;8.428;2023-09-30T07:32:05;15.23;;;8.35;;
46036;SDS011;31769;49.304;8.428;2023-09-30T07:35:07;12.82;;;10.10;;
46036;SDS011;31769;49.304;8.428;2023-09-30T07:38:09;18.42;;;10.45;;
46036;SDS011;31769;49.304;8.428;2023-09-30T07:41:09;21.33;;;19.23;;
46036;SDS011;31769;49.304;8.428;2023-09-30T07:44:10;23.33;;;20.25;;
46036;SDS011;31769;49.304;8.428;2023-09-30T07:47:11;40.08;;;36.38;;
46036;SDS011;31769;49.304;8.428;2023-09-30T07:50:12;40.83;;;36.83;;
46036;SDS011;31769;49.304;8.428;2023-09-30T07:53:13;65.95;;;60.15;;
46036;SDS011;31769;49.304;8.428;2023-09-30T07:56:13;115.72;;;105.43;;
46036;SDS011;31769;49.304;8.428;2023-09-30T07:59:14;149.00;;;135.30;;
46036;SDS011;31769;49.304;8.428;2023-09-30T08:02:15;211.90;;;192.75;;
46036;SDS011;31769;49.304;8.428;2023-09-30T08:05:17;314.58;;;284.02;;
46036;SDS011;31769;49.304;8.428;2023-09-30T08:08:18;457.15;;;416.45;;
46036;SDS011;31769;49.304;8.428;2023-09-30T08:11:19;512.63;;;467.90;;
46036;SDS011;31769;49.304;8.428;2023-09-30T08:14:20;546.58;;;497.60;;
46036;SDS011;31769;49.304;8.428;2023-09-30T08:17:22;681.83;;;613.03;;
46036;SDS011;31769;49.304;8.428;2023-09-30T08:20:22;677.25;;;605.47;;
46036;SDS011;31769;49.304;8.428;2023-09-30T08:23:23;606.28;;;536.63;;
46036;SDS011;31769;49.304;8.428;2023-09-30T08:26:24;651.35;;;578.70;;
46036;SDS011;31769;49.304;8.428;2023-09-30T08:29:24;618.65;;;547.20;;
46036;SDS011;31769;49.304;8.428;2023-09-30T08:32:25;710.38;;;589.28;;
46036;SDS011;31769;49.304;8.428;2023-09-30T08:35:26;754.83;;;672.78;;
46036;SDS011;31769;49.304;8.428;2023-09-30T08:38:27;801.13;;;698.55;;
46036;SDS011;31769;49.304;8.428;2023-09-30T08:41:32;775.40;;;665.92;;
46036;SDS011;31769;49.304;8.428;2023-09-30T08:47:36;576.97;;;512.90;;
46036;SDS011;31769;49.304;8.428;2023-09-30T08:50:37;626.40;;;556.05;;
46036;SDS011;31769;49.304;8.428;2023-09-30T08:53:41;600.80;;;522.70;;
46036;SDS011;31769;49.304;8.428;2023-09-30T08:56:44;514.00;;;458.50;;
46036;SDS011;31769;49.304;8.428;2023-09-30T08:59:49;499.77;;;432.77;;
46036;SDS011;31769;49.304;8.428;2023-09-30T09:02:50;464.90;;;389.65;;
46036;SDS011;31769;49.304;8.428;2023-09-30T09:05:57;293.35;;;231.10;;
46036;SDS011;31769;49.304;8.428;2023-09-30T09:09:18;164.68;;;127.22;;
46036;SDS011;31769;49.304;8.428;2023-09-30T09:12:19;122.57;;;80.53;;
46036;SDS011;31769;49.304;8.428;2023-09-30T09:15:21;55.63;;;43.30;;
46036;SDS011;31769;49.304;8.428;2023-09-30T09:18:33;28.20;;;15.88;;
46036;SDS011;31769;49.304;8.428;2023-09-30T09:21:35;57.45;;;40.67;;
46036;SDS011;31769;49.304;8.428;2023-09-30T09:24:36;16.95;;;9.25;;
46036;SDS011;31769;49.304;8.428;2023-09-30T09:27:42;17.17;;;10.98;;
46036;SDS011;31769;49.304;8.428;2023-09-30T09:30:43;13.02;;;7.18;;
46036;SDS011;31769;49.304;8.428;2023-09-30T09:33:44;13.35;;;6.90;;
46036;SDS011;31769;49.304;8.428;2023-09-30T09:36:45;11.88;;;5.95;;
46036;SDS011;31769;49.304;8.428;2023-09-30T09:39:53;14.23;;;5.70;;
46036;SDS011;31769;49.304;8.428;2023-09-30T09:42:56;13.55;;;5.82;;
46036;SDS011;31769;49.304;8.428;2023-09-30T09:45:57;11.90;;;5.20;;
46036;SDS011;31769;49.304;8.428;2023-09-30T09:48:58;11.20;;;5.88;;
46036;SDS011;31769;49.304;8.428;2023-09-30T09:51:59;13.98;;;5.35;;
46036;SDS011;31769;49.304;8.428;2023-09-30T09:55:01;10.65;;;5.50;;
46036;SDS011;31769;49.304;8.428;2023-09-30T09:58:03;10.20;;;4.97;;
46036;SDS011;31769;49.304;8.428;2023-09-30T10:01:05;10.90;;;6.20;;
46036;SDS011;31769;49.304;8.428;2023-09-30T10:04:06;11.57;;;4.78;;
46036;SDS011;31769;49.304;8.428;2023-09-30T10:07:07;12.75;;;5.57;;
46036;SDS011;31769;49.304;8.428;2023-09-30T10:10:17;10.25;;;4.97;;
46036;SDS011;31769;49.304;8.428;2023-09-30T10:16:52;9.93;;;5.80;;
46036;SDS011;31769;49.304;8.428;2023-09-30T10:20:07;11.82;;;4.72;;
46036;SDS011;31769;49.304;8.428;2023-09-30T10:26:17;10.15;;;4.95;;
46036;SDS011;31769;49.304;8.428;2023-09-30T10:29:20;12.30;;;5.45;;
46036;SDS011;31769;49.304;8.428;2023-09-30T10:32:21;10.38;;;4.72;;
46036;SDS011;31769;49.304;8.428;2023-09-30T10:44:45;10.43;;;4.38;;
46036;SDS011;31769;49.304;8.428;2023-09-30T10:47:46;10.90;;;4.60;;
46036;SDS011;31769;49.304;8.428;2023-09-30T10:50:51;8.60;;;4.45;;
46036;SDS011;31769;49.304;8.428;2023-09-30T10:53:55;11.80;;;5.82;;
46036;SDS011;31769;49.304;8.428;2023-09-30T10:57:00;9.97;;;5.47;;
46036;SDS011;31769;49.304;8.428;2023-09-30T11:00:10;9.82;;;4.35;;
46036;SDS011;31769;49.304;8.428;2023-09-30T11:03:11;8.32;;;4.13;;
46036;SDS011;31769;49.304;8.428;2023-09-30T11:06:13;7.60;;;4.10;;
46036;SDS011;31769;49.304;8.428;2023-09-30T11:09:18;11.35;;;5.78;;
46036;SDS011;31769;49.304;8.428;2023-09-30T11:12:20;14.43;;;11.43;;
46036;SDS011;31769;49.304;8.428;2023-09-30T11:15:21;9.75;;;5.05;;
46036;SDS011;31769;49.304;8.428;2023-09-30T11:18:21;8.13;;;4.18;;
46036;SDS011;31769;49.304;8.428;2023-09-30T11:21:22;8.55;;;4.32;;
46036;SDS011;31769;49.304;8.428;2023-09-30T11:24:23;11.50;;;5.50;;
46036;SDS011;31769;49.304;8.428;2023-09-30T11:27:25;9.88;;;4.93;;
46036;SDS011;31769;49.304;8.428;2023-09-30T11:30:26;10.02;;;5.60;;
46036;SDS011;31769;49.304;8.428;2023-09-30T11:33:27;7.97;;;4.50;;
46036;SDS011;31769;49.304;8.428;2023-09-30T11:36:29;7.65;;;4.05;;
46036;SDS011;31769;49.304;8.428;2023-09-30T11:39:31;7.28;;;4.20;;
46036;SDS011;31769;49.304;8.428;2023-09-30T11:42:33;7.30;;;4.13;;
46036;SDS011;31769;49.304;8.428;2023-09-30T11:45:34;9.02;;;3.60;;
46036;SDS011;31769;49.304;8.428;2023-09-30T11:48:35;7.40;;;4.07;;
46036;SDS011;31769;49.304;8.428;2023-09-30T11:51:42;9.55;;;4.32;;
46036;SDS011;31769;49.304;8.428;2023-09-30T11:54:46;7.15;;;4.55;;
46036;SDS011;31769;49.304;8.428;2023-09-30T11:57:47;8.23;;;4.60;;
46036;SDS011;31769;49.304;8.428;2023-09-30T12:00:47;9.52;;;4.72;;
46036;SDS011;31769;49.304;8.428;2023-09-30T12:03:51;11.20;;;4.75;;
46036;SDS011;31769;49.304;8.428;2023-09-30T12:06:52;8.10;;;4.00;;
46036;SDS011;31769;49.304;8.428;2023-09-30T12:09:53;12.25;;;5.30;;
46036;SDS011;31769;49.304;8.428;2023-09-30T12:12:54;11.00;;;6.18;;
46036;SDS011;31769;49.304;8.428;2023-09-30T12:15:55;15.10;;;6.78;;
46036;SDS011;31769;49.304;8.428;2023-09-30T12:18:57;11.80;;;5.80;;
46036;SDS011;31769;49.304;8.428;2023-09-30T12:21:58;9.00;;;5.45;;
46036;SDS011;31769;49.304;8.428;2023-09-30T12:24:58;6.43;;;4.20;;
46036;SDS011;31769;49.304;8.428;2023-09-30T12:28:00;8.30;;;4.45;;
46036;SDS011;31769;49.304;8.428;2023-09-30T12:31:00;8.60;;;5.15;;
46036;SDS011;31769;49.304;8.428;2023-09-30T12:34:04;8.65;;;4.30;;
46036;SDS011;31769;49.304;8.428;2023-09-30T12:37:05;8.50;;;4.25;;
46036;SDS011;31769;49.304;8.428;2023-09-30T12:40:06;8.88;;;4.63;;
46036;SDS011;31769;49.304;8.428;2023-09-30T12:43:07;8.18;;;4.57;;
46036;SDS011;31769;49.304;8.428;2023-09-30T12:46:09;7.80;;;3.78;;
46036;SDS011;31769;49.304;8.428;2023-09-30T12:49:09;7.22;;;4.38;;
46036;SDS011;31769;49.304;8.428;2023-09-30T12:52:10;8.23;;;4.50;;
46036;SDS011;31769;49.304;8.428;2023-09-30T12:55:11;5.97;;;3.72;;
46036;SDS011;31769;49.304;8.428;2023-09-30T12:58:11;6.95;;;3.53;;
46036;SDS011;31769;49.304;8.428;2023-09-30T13:01:12;10.23;;;3.63;;
46036;SDS011;31769;49.304;8.428;2023-09-30T13:04:14;7.07;;;4.65;;
46036;SDS011;31769;49.304;8.428;2023-09-30T13:07:14;4.97;;;3.67;;
46036;SDS011;31769;49.304;8.428;2023-09-30T13:10:15;6.40;;;4.10;;
46036;SDS011;31769;49.304;8.428;2023-09-30T13:13:16;5.50;;;4.10;;
46036;SDS011;31769;49.304;8.428;2023-09-30T13:16:17;10.60;;;3.78;;
46036;SDS011;31769;49.304;8.428;2023-09-30T13:19:18;5.03;;;3.60;;
46036;SDS011;31769;49.304;8.428;2023-09-30T13:22:21;7.22;;;4.03;;
46036;SDS011;31769;49.304;8.428;2023-09-30T13:25:22;6.53;;;3.88;;
46036;SDS011;31769;49.304;8.428;2023-09-30T13:28:22;7.80;;;4.50;;
46036;SDS011;31769;49.304;8.428;2023-09-30T13:31:23;7.07;;;3.92;;
46036;SDS011;31769;49.304;8.428;2023-09-30T13:34:24;10.48;;;3.95;;
46036;SDS011;31769;49.304;8.428;2023-09-30T13:37:24;10.45;;;4.15;;
46036;SDS011;31769;49.304;8.428;2023-09-30T13:40:30;9.43;;;5.07;;
46036;SDS011;31769;49.304;8.428;2023-09-30T13:43:30;8.68;;;5.50;;
46036;SDS011;31769;49.304;8.428;2023-09-30T13:46:31;7.55;;;4.65;;
46036;SDS011;31769;49.304;8.428;2023-09-30T13:49:32;8.40;;;4.30;;
46036;SDS011;31769;49.304;8.428;2023-09-30T13:52:34;7.65;;;4.03;;
46036;SDS011;31769;49.304;8.428;2023-09-30T13:55:37;6.93;;;4.05;;
46036;SDS011;31769;49.304;8.428;2023-09-30T13:58:38;11.07;;;4.53;;
46036;SDS011;31769;49.304;8.428;2023-09-30T14:01:39;9.60;;;5.93;;
46036;SDS011;31769;49.304;8.428;2023-09-30T14:04:41;7.28;;;4.65;;
46036;SDS011;31769;49.304;8.428;2023-09-30T14:07:42;10.75;;;4.70;;
46036;SDS011;31769;49.304;8.428;2023-09-30T14:10:43;7.95;;;4.65;;
46036;SDS011;31769;49.304;8.428;2023-09-30T14:13:44;7.88;;;4.50;;
46036;SDS011;31769;49.304;8.428;2023-09-30T14:16:45;8.45;;;4.95;;
46036;SDS011;31769;49.304;8.428;2023-09-30T14:19:47;8.77;;;4.85;;
46036;SDS011;31769;49.304;8.428;2023-09-30T14:22:48;9.48;;;5.00;;
46036;SDS011;31769;49.304;8.428;2023-09-30T14:25:48;9.50;;;4.95;;
46036;SDS011;31769;49.304;8.428;2023-09-30T14:28:49;8.60;;;4.50;;
46036;SDS011;31769;49.304;8.428;2023-09-30T14:31:50;8.00;;;4.95;;
46036;SDS011;31769;49.304;8.428;2023-09-30T14:34:51;9.75;;;4.85;;
46036;SDS011;31769;49.304;8.428;2023-09-30T14:37:52;11.40;;;4.68;;
46036;SDS011;31769;49.304;8.428;2023-09-30T14:40:54;7.78;;;4.53;;
46036;SDS011;31769;49.304;8.428;2023-09-30T14:43:55;9.38;;;4.95;;
46036;SDS011;31769;49.304;8.428;2023-09-30T14:46:56;7.15;;;4.88;;
46036;SDS011;31769;49.304;8.428;2023-09-30T14:49:57;10.77;;;5.75;;
46036;SDS011;31769;49.304;8.428;2023-09-30T14:53:01;41.90;;;32.67;;
46036;SDS011;31769;49.304;8.428;2023-09-30T14:56:02;23.48;;;15.07;;
46036;SDS011;31769;49.304;8.428;2023-09-30T14:59:03;45.70;;;37.67;;
46036;SDS011;31769;49.304;8.428;2023-09-30T15:02:04;15.07;;;11.23;;
46036;SDS011;31769;49.304;8.428;2023-09-30T15:05:04;11.55;;;8.35;;
46036;SDS011;31769;49.304;8.428;2023-09-30T15:08:06;16.98;;;11.23;;
46036;SDS011;31769;49.304;8.428;2023-09-30T15:11:12;17.38;;;13.48;;
46036;SDS011;31769;49.304;8.428;2023-09-30T15:14:16;10.68;;;6.53;;
46036;SDS011;31769;49.304;8.428;2023-09-30T15:17:18;13.73;;;8.98;;
46036;SDS011;31769;49.304;8.428;2023-09-30T15:20:19;8.43;;;6.22;;
46036;SDS011;31769;49.304;8.428;2023-09-30T15:23:19;9.82;;;5.75;;
46036;SDS011;31769;49.304;8.428;2023-09-30T15:26:20;7.65;;;5.30;;
46036;SDS011;31769;49.304;8.428;2023-09-30T15:29:21;8.75;;;4.68;;
46036;SDS011;31769;49.304;8.428;2023-09-30T15:32:22;7.13;;;4.20;;
46036;SDS011;31769;49.304;8.428;2023-09-30T15:35:22;8.73;;;4.30;;
46036;SDS011;31769;49.304;8.428;2023-09-30T15:38:23;8.50;;;5.35;;
46036;SDS011;31769;49.304;8.428;2023-09-30T15:41:24;10.07;;;4.82;;
46036;SDS011;31769;49.304;8.428;2023-09-30T15:44:25;7.03;;;4.30;;
46036;SDS011;31769;49.304;8.428;2023-09-30T15:47:25;9.88;;;4.75;;
46036;SDS011;31769;49.304;8.428;2023-09-30T15:50:26;8.60;;;4.07;;
46036;SDS011;31769;49.304;8.428;2023-09-30T15:53:27;10.30;;;4.60;;
46036;SDS011;31769;49.304;8.428;2023-09-30T15:56:28;7.82;;;4.50;;
46036;SDS011;31769;49.304;8.428;2023-09-30T15:59:29;7.97;;;4.72;;
46036;SDS011;31769;49.304;8.428;2023-09-30T16:02:30;9.30;;;5.00;;
46036;SDS011;31769;49.304;8.428;2023-09-30T16:05:31;12.50;;;5.75;;
46036;SDS011;31769;49.304;8.428;2023-09-30T16:08:33;9.95;;;5.30;;
46036;SDS011;31769;49.304;8.428;2023-09-30T16:11:33;8.15;;;5.03;;
46036;SDS011;31769;49.304;8.428;2023-09-30T16:14:34;9.90;;;4.68;;
46036;SDS011;31769;49.304;8.428;2023-09-30T16:17:35;8.95;;;4.90;;
46036;SDS011;31769;49.304;8.428;2023-09-30T16:20:35;8.60;;;4.93;;
46036;SDS011;31769;49.304;8.428;2023-09-30T16:23:36;7.32;;;4.85;;
46036;SDS011;31769;49.304;8.428;2023-09-30T16:26:37;6.55;;;4.88;;
46036;SDS011;31769;49.304;8.428;2023-09-30T16:29:37;10.18;;;5.55;;
46036;SDS011;31769;49.304;8.428;2023-09-30T16:32:38;8.40;;;5.45;;
46036;SDS011;31769;49.304;8.428;2023-09-30T16:35:39;13.05;;;6.45;;
46036;SDS011;31769;49.304;8.428;2023-09-30T16:38:40;25.67;;;17.83;;
46036;SDS011;31769;49.304;8.428;2023-09-30T16:41:41;24.70;;;17.33;;
46036;SDS011;31769;49.304;8.428;2023-09-30T16:44:41;21.90;;;15.82;;
46036;SDS011;31769;49.304;8.428;2023-09-30T16:47:42;14.32;;;9.20;;
46036;SDS011;31769;49.304;8.428;2023-09-30T16:50:43;12.05;;;7.00;;
46036;SDS011;31769;49.304;8.428;2023-09-30T16:53:44;11.85;;;6.68;;
46036;SDS011;31769;49.304;8.428;2023-09-30T16:56:44;12.32;;;6.90;;
46036;SDS011;31769;49.304;8.428;2023-09-30T16:59:45;13.00;;;8.43;;
46036;SDS011;31769;49.304;8.428;2023-09-30T17:02:46;12.23;;;7.47;;
46036;SDS011;31769;49.304;8.428;2023-09-30T17:05:46;14.35;;;8.10;;
46036;SDS011;31769;49.304;8.428;2023-09-30T17:08:48;14.13;;;8.27;;
46036;SDS011;31769;49.304;8.428;2023-09-30T17:11:48;11.18;;;7.70;;
46036;SDS011;31769;49.304;8.428;2023-09-30T17:14:49;13.43;;;8.85;;
46036;SDS011;31769;49.304;8.428;2023-09-30T17:17:50;12.50;;;7.45;;
46036;SDS011;31769;49.304;8.428;2023-09-30T17:20:52;10.45;;;7.97;;
46036;SDS011;31769;49.304;8.428;2023-09-30T17:23:53;11.18;;;7.05;;
46036;SDS011;31769;49.304;8.428;2023-09-30T17:26:54;12.68;;;6.78;;
46036;SDS011;31769;49.304;8.428;2023-09-30T17:29:55;10.70;;;6.90;;
46036;SDS011;31769;49.304;8.428;2023-09-30T17:32:56;13.73;;;7.03;;
46036;SDS011;31769;49.304;8.428;2023-09-30T17:36:00;11.93;;;6.78;;
46036;SDS011;31769;49.304;8.428;2023-09-30T17:39:03;15.30;;;7.55;;
46036;SDS011;31769;49.304;8.428;2023-09-30T17:42:04;11.73;;;7.15;;
46036;SDS011;31769;49.304;8.428;2023-09-30T17:45:05;11.80;;;6.93;;
46036;SDS011;31769;49.304;8.428;2023-09-30T17:48:09;14.57;;;9.63;;
46036;SDS011;31769;49.304;8.428;2023-09-30T17:51:13;18.98;;;12.93;;
46036;SDS011;31769;49.304;8.428;2023-09-30T17:54:18;16.80;;;11.10;;
46036;SDS011;31769;49.304;8.428;2023-09-30T17:57:18;13.35;;;8.82;;
46036;SDS011;31769;49.304;8.428;2023-09-30T18:00:19;15.18;;;8.10;;
46036;SDS011;31769;49.304;8.428;2023-09-30T18:03:20;11.77;;;7.32;;
46036;SDS011;31769;49.304;8.428;2023-09-30T18:06:22;13.63;;;7.43;;
46036;SDS011;31769;49.304;8.428;2023-09-30T18:09:23;18.52;;;13.35;;
46036;SDS011;31769;49.304;8.428;2023-09-30T18:12:24;27.25;;;19.50;;
46036;SDS011;31769;49.304;8.428;2023-09-30T18:15:25;21.10;;;14.52;;
46036;SDS011;31769;49.304;8.428;2023-09-30T18:18:26;17.73;;;10.82;;